Time;durP1;ratioP1;P1;durP2;ratioP2;P2;SDS_P1;SDS_P2;PMS_P1;PMS_P2;Temp;Humidity;BMP_temperature;BMP_pressure;BME280_temperature;BME280_humidity;BME280_pressure;Samples;Min_cycle;Max_cycle;Signal;HPM_P1;HPM_P2
2023/01/22 00:01:42;;;;;;;7.55;3.13;;;;;;;;;;5062547;28;20403;-88
2023/01/22 00:04:10;;;;;;;7.88;3.25;;;;;;;;;;5068316;28;20432;-89
2023/01/22 00:06:44;;;;;;;7.53;2.90;;;;;;;;;;5060215;28;20431;-82
2023/01/22 00:09:14;;;;;;;6.88;3.15;;;;;;;;;;5070734;28;20416;-88
2023/01/22 00:11:42;;;;;;;7.68;3.10;;;;;;;;;;5079857;28;20412;-84
2023/01/22 00:14:15;;;;;;;8.00;3.10;;;;;;;;;;5057739;28;20421;-88
2023/01/22 00:16:47;;;;;;;6.15;2.75;;;;;;;;;;5058409;28;21327;-87
2023/01/22 00:19:15;;;;;;;9.27;3.25;;;;;;;;;;5060153;28;20420;-88
2023/01/22 00:21:49;;;;;;;7.85;3.58;;;;;;;;;;5062548;28;20411;-90
2023/01/22 00:24:22;;;;;;;5.68;2.60;;;;;;;;;;5067592;28;20763;-84
2023/01/22 00:26:50;;;;;;;8.95;2.95;;;;;;;;;;5069298;28;20433;-85
2023/01/22 00:29:18;;;;;;;7.60;3.13;;;;;;;;;;5061117;28;20424;-88
2023/01/22 00:31:51;;;;;;;5.57;2.38;;;;;;;;;;5062672;28;20431;-86
2023/01/22 00:34:24;;;;;;;8.10;3.03;;;;;;;;;;5059331;28;20431;-86
2023/01/22 00:36:59;;;;;;;8.37;3.63;;;;;;;;;;5062169;28;20902;-85
2023/01/22 00:39:31;;;;;;;7.60;3.20;;;;;;;;;;5050848;28;20418;-85
2023/01/22 00:42:04;;;;;;;8.32;3.60;;;;;;;;;;5060689;28;20421;-84
2023/01/22 00:44:37;;;;;;;9.98;3.33;;;;;;;;;;5057498;28;20412;-85
2023/01/22 00:47:10;;;;;;;8.40;3.47;;;;;;;;;;5077806;28;21018;-88
2023/01/22 00:49:43;;;;;;;8.60;3.37;;;;;;;;;;5062736;28;20423;-84
2023/01/22 00:52:12;;;;;;;9.18;3.70;;;;;;;;;;5062406;28;20413;-84
2023/01/22 00:54:39;;;;;;;8.15;3.40;;;;;;;;;;5059929;28;20889;-83
2023/01/22 00:57:12;;;;;;;9.70;3.30;;;;;;;;;;5055388;28;20413;-84
2023/01/22 00:59:40;;;;;;;8.02;3.45;;;;;;;;;;5061871;28;20415;-84
2023/01/22 01:02:13;;;;;;;7.18;3.00;;;;;;;;;;5057905;28;20874;-84
2023/01/22 01:04:45;;;;;;;8.88;3.20;;;;;;;;;;5058041;28;20425;-87
2023/01/22 01:07:17;;;;;;;9.20;3.67;;;;;;;;;;5080085;28;20438;-83
2023/01/22 01:09:50;;;;;;;9.13;3.88;;;;;;;;;;5067743;28;20431;-83
2023/01/22 01:12:20;;;;;;;9.45;4.00;;;;;;;;;;5073874;28;20409;-83
2023/01/22 01:14:49;;;;;;;9.40;3.78;;;;;;;;;;5057748;28;20438;-83
2023/01/22 01:17:23;;;;;;;10.60;4.10;;;;;;;;;;5061545;28;20409;-82
2023/01/22 01:19:51;;;;;;;8.93;3.80;;;;;;;;;;5061962;28;20432;-87
2023/01/22 01:22:20;;;;;;;7.68;3.70;;;;;;;;;;5059374;28;20417;-83
2023/01/22 01:24:48;;;;;;;9.55;3.90;;;;;;;;;;5066534;28;20436;-86
2023/01/22 01:27:16;;;;;;;9.80;4.20;;;;;;;;;;5073975;28;20432;-88
2023/01/22 01:29:49;;;;;;;9.98;3.70;;;;;;;;;;5058799;28;20408;-85
2023/01/22 01:32:21;;;;;;;7.07;3.50;;;;;;;;;;5062936;28;20431;-84
2023/01/22 01:34:54;;;;;;;12.77;4.32;;;;;;;;;;5075521;28;20418;-85
2023/01/22 01:37:28;;;;;;;10.15;4.03;;;;;;;;;;5061642;28;20407;-83
2023/01/22 01:39:56;;;;;;;8.00;4.18;;;;;;;;;;5052924;28;20416;-84
2023/01/22 01:42:25;;;;;;;12.25;4.50;;;;;;;;;;5068435;28;20784;-86
2023/01/22 01:45:12;;;;;;;12.30;4.18;;;;;;;;;;5076926;28;20415;-90
2023/01/22 01:47:40;;;;;;;9.20;3.92;;;;;;;;;;5074946;28;20419;-86
2023/01/22 01:50:12;;;;;;;9.37;4.10;;;;;;;;;;5056656;28;20971;-86
2023/01/22 01:52:41;;;;;;;8.48;3.78;;;;;;;;;;5065881;28;20466;-85
2023/01/22 01:55:11;;;;;;;10.85;4.00;;;;;;;;;;5058664;28;20432;-83
2023/01/22 01:57:44;;;;;;;10.05;4.10;;;;;;;;;;5076316;28;20429;-86
2023/01/22 02:00:14;;;;;;;11.10;4.00;;;;;;;;;;5058335;28;20406;-84
2023/01/22 02:02:48;;;;;;;9.50;4.20;;;;;;;;;;5066171;28;20418;-84
2023/01/22 02:05:21;;;;;;;10.73;4.20;;;;;;;;;;5062383;28;20432;-84
2023/01/22 02:07:56;;;;;;;11.25;3.70;;;;;;;;;;5077363;28;20417;-84
2023/01/22 02:10:29;;;;;;;13.63;4.32;;;;;;;;;;5057015;28;20419;-86
2023/01/22 02:13:06;;;;;;;14.52;4.57;;;;;;;;;;5075244;28;20421;-84
2023/01/22 02:15:34;;;;;;;9.57;4.35;;;;;;;;;;5056151;28;20945;-83
2023/01/22 02:18:06;;;;;;;9.68;4.00;;;;;;;;;;5077398;28;20455;-87
2023/01/22 02:20:51;;;;;;;12.80;4.22;;;;;;;;;;5059333;28;20413;-82
2023/01/22 02:23:24;;;;;;;12.02;3.92;;;;;;;;;;5062067;28;20430;-86
2023/01/22 02:25:52;;;;;;;11.25;4.07;;;;;;;;;;5062550;28;20413;-87
2023/01/22 02:28:19;;;;;;;10.53;3.83;;;;;;;;;;5056271;28;20428;-86
2023/01/22 02:30:48;;;;;;;11.52;4.15;;;;;;;;;;5065872;28;20413;-83
2023/01/22 02:33:16;;;;;;;10.38;4.30;;;;;;;;;;5064328;28;21229;-84
2023/01/22 02:35:45;;;;;;;9.52;4.20;;;;;;;;;;5048912;28;20413;-86
2023/01/22 02:38:13;;;;;;;10.20;4.07;;;;;;;;;;5072084;28;20764;-85
2023/01/22 02:40:47;;;;;;;10.27;4.22;;;;;;;;;;5071809;28;20424;-84
2023/01/22 02:43:18;;;;;;;12.20;4.20;;;;;;;;;;5054970;28;20490;-83
2023/01/22 02:45:51;;;;;;;10.45;4.28;;;;;;;;;;5065900;28;20413;-85
2023/01/22 02:48:24;;;;;;;9.93;4.15;;;;;;;;;;5078731;28;20415;-85
2023/01/22 02:50:53;;;;;;;8.60;3.20;;;;;;;;;;5076768;28;20942;-84
2023/01/22 02:53:21;;;;;;;9.00;3.75;;;;;;;;;;5048362;28;20421;-85
2023/01/22 02:55:53;;;;;;;12.20;4.15;;;;;;;;;;5060349;28;20408;-87
2023/01/22 02:58:26;;;;;;;12.18;4.15;;;;;;;;;;5065208;28;20436;-87
2023/01/22 03:01:07;;;;;;;8.95;3.67;;;;;;;;;;5073118;28;20425;-83
2023/01/22 03:03:39;;;;;;;8.70;4.15;;;;;;;;;;5073320;28;20415;-84
2023/01/22 03:06:14;;;;;;;10.85;4.38;;;;;;;;;;5058484;28;20420;-84
2023/01/22 03:08:47;;;;;;;11.20;4.40;;;;;;;;;;5060781;28;20961;-85
2023/01/22 03:11:20;;;;;;;10.57;4.53;;;;;;;;;;5055082;28;20419;-85
2023/01/22 03:22:27;;;;;;;9.57;3.90;;;;;;;;;;5060331;28;20772;-84
2023/01/22 03:24:59;;;;;;;9.43;3.80;;;;;;;;;;5074298;28;20426;-87
2023/01/22 03:27:28;;;;;;;8.07;3.83;;;;;;;;;;5072817;28;20498;-86
2023/01/22 03:30:01;;;;;;;10.43;4.22;;;;;;;;;;5058593;28;20419;-85
2023/01/22 03:32:33;;;;;;;9.48;4.18;;;;;;;;;;5074040;28;20420;-84
2023/01/22 03:35:09;;;;;;;10.07;3.85;;;;;;;;;;5074791;28;20424;-88
2023/01/22 03:37:58;;;;;;;9.55;4.22;;;;;;;;;;5056938;28;20409;-88
2023/01/22 03:40:31;;;;;;;10.63;4.05;;;;;;;;;;5058252;28;20413;-85
2023/01/22 03:43:00;;;;;;;11.10;4.28;;;;;;;;;;5065475;28;20414;-84
2023/01/22 03:45:32;;;;;;;10.95;4.00;;;;;;;;;;5060422;28;20436;-84
2023/01/22 03:48:06;;;;;;;10.57;3.85;;;;;;;;;;5066163;28;20912;-82
2023/01/22 03:50:38;;;;;;;11.27;4.40;;;;;;;;;;5055599;28;20417;-83
2023/01/22 03:53:13;;;;;;;10.87;3.97;;;;;;;;;;5049031;28;20420;-83
2023/01/22 03:55:41;;;;;;;13.00;4.05;;;;;;;;;;5062188;28;20421;-85
2023/01/22 03:58:14;;;;;;;13.68;3.92;;;;;;;;;;5065344;28;20391;-89
2023/01/22 04:00:48;;;;;;;9.68;3.92;;;;;;;;;;5079829;28;20413;-84
2023/01/22 04:03:21;;;;;;;10.27;4.00;;;;;;;;;;5059344;28;20422;-82
2023/01/22 04:05:54;;;;;;;9.23;3.58;;;;;;;;;;5050406;28;20436;-87
2023/01/22 04:08:23;;;;;;;11.35;4.00;;;;;;;;;;5067605;28;20419;-85
2023/01/22 04:10:53;;;;;;;11.00;4.03;;;;;;;;;;5061897;28;20421;-83
2023/01/22 04:13:21;;;;;;;10.90;4.00;;;;;;;;;;5063126;28;20422;-88
2023/01/22 04:15:54;;;;;;;8.82;3.80;;;;;;;;;;5063207;28;20774;-84
2023/01/22 04:18:46;;;;;;;9.93;3.35;;;;;;;;;;5065752;28;20409;-84
2023/01/22 04:21:39;;;;;;;12.17;3.60;;;;;;;;;;5058474;28;20758;-86
2023/01/22 04:24:11;;;;;;;11.50;3.88;;;;;;;;;;5059735;28;20417;-85
2023/01/22 04:26:38;;;;;;;12.52;3.75;;;;;;;;;;5060673;28;20876;-84
2023/01/22 04:29:13;;;;;;;11.32;4.20;;;;;;;;;;5080754;28;20423;-85
2023/01/22 04:31:46;;;;;;;12.55;4.00;;;;;;;;;;5075129;28;21068;-84
2023/01/22 04:34:19;;;;;;;11.30;3.80;;;;;;;;;;5069959;28;20421;-84
2023/01/22 04:37:00;;;;;;;13.73;3.80;;;;;;;;;;5078173;28;21112;-86
2023/01/22 04:39:33;;;;;;;9.95;4.03;;;;;;;;;;5059109;28;20431;-82
2023/01/22 04:42:05;;;;;;;11.90;3.67;;;;;;;;;;5058777;28;20910;-84
2023/01/22 04:44:38;;;;;;;10.00;3.80;;;;;;;;;;5076040;28;20425;-83
2023/01/22 04:47:07;;;;;;;9.40;3.78;;;;;;;;;;5050462;28;20421;-83
2023/01/22 04:49:37;;;;;;;12.90;3.58;;;;;;;;;;5078443;28;20897;-85
2023/01/22 04:52:08;;;;;;;11.88;3.30;;;;;;;;;;5063314;28;20421;-83
2023/01/22 04:54:37;;;;;;;9.85;3.50;;;;;;;;;;5062421;28;20425;-85
2023/01/22 04:57:10;;;;;;;8.95;3.60;;;;;;;;;;5060556;28;20920;-83
2023/01/22 04:59:43;;;;;;;9.07;3.63;;;;;;;;;;5058009;28;20422;-84
2023/01/22 05:02:16;;;;;;;10.85;3.72;;;;;;;;;;5050661;28;20439;-83
2023/01/22 05:04:50;;;;;;;12.48;3.47;;;;;;;;;;5078273;28;20881;-87
2023/01/22 05:07:23;;;;;;;10.30;3.53;;;;;;;;;;5057399;28;20433;-86
2023/01/22 05:09:57;;;;;;;10.43;3.30;;;;;;;;;;5062911;28;20407;-84
2023/01/22 05:12:30;;;;;;;9.27;3.27;;;;;;;;;;5057510;28;20471;-85
2023/01/22 05:14:58;;;;;;;10.50;3.20;;;;;;;;;;5050171;28;20447;-85
2023/01/22 05:17:31;;;;;;;7.07;2.90;;;;;;;;;;5063182;28;20415;-83
2023/01/22 05:19:58;;;;;;;11.98;3.30;;;;;;;;;;5061334;28;20420;-82
2023/01/22 05:22:26;;;;;;;9.25;3.25;;;;;;;;;;5050217;28;20882;-84
2023/01/22 05:24:54;;;;;;;9.95;3.25;;;;;;;;;;5060563;28;20419;-85
2023/01/22 05:27:28;;;;;;;12.77;3.40;;;;;;;;;;5076968;28;20757;-84
2023/01/22 05:30:10;;;;;;;10.68;3.20;;;;;;;;;;5075366;28;20421;-83
2023/01/22 05:32:55;;;;;;;10.70;3.30;;;;;;;;;;5060912;28;20411;-84
2023/01/22 05:35:23;;;;;;;12.25;3.88;;;;;;;;;;5076119;28;20417;-84
2023/01/22 05:37:51;;;;;;;8.57;2.80;;;;;;;;;;5059264;28;20881;-83
2023/01/22 05:40:20;;;;;;;12.38;3.35;;;;;;;;;;5051669;28;20764;-84
2023/01/22 05:42:54;;;;;;;10.98;3.60;;;;;;;;;;5078064;28;20412;-84
2023/01/22 05:45:22;;;;;;;13.13;3.70;;;;;;;;;;5058906;28;20940;-84
2023/01/22 05:48:17;;;;;;;11.93;3.63;;;;;;;;;;5077007;28;20750;-85
2023/01/22 05:51:06;;;;;;;10.60;3.25;;;;;;;;;;5075355;28;20442;-84
2023/01/22 05:53:39;;;;;;;12.27;3.00;;;;;;;;;;5074983;28;20428;-82
2023/01/22 05:56:15;;;;;;;11.55;3.58;;;;;;;;;;5077353;28;20408;-84
2023/01/22 05:58:50;;;;;;;8.63;2.65;;;;;;;;;;5077134;28;20461;-84
2023/01/22 06:01:23;;;;;;;10.15;3.10;;;;;;;;;;5058938;28;20458;-83
2023/01/22 06:03:58;;;;;;;8.70;3.10;;;;;;;;;;5061718;28;20426;-86
2023/01/22 06:06:26;;;;;;;13.73;3.13;;;;;;;;;;5075252;28;20912;-83
2023/01/22 06:08:59;;;;;;;8.18;2.75;;;;;;;;;;5061126;28;20433;-83
2023/01/22 06:11:32;;;;;;;10.00;2.85;;;;;;;;;;5071091;28;20414;-82
2023/01/22 06:14:06;;;;;;;9.55;2.65;;;;;;;;;;5076390;28;20431;-84
2023/01/22 06:16:39;;;;;;;8.73;2.55;;;;;;;;;;5061966;28;20990;-84
2023/01/22 06:19:32;;;;;;;6.53;2.55;;;;;;;;;;5062785;28;20416;-83
2023/01/22 06:22:06;;;;;;;7.43;2.60;;;;;;;;;;5075579;28;20410;-82
2023/01/22 06:24:48;;;;;;;9.48;2.30;;;;;;;;;;5055631;28;20947;-83
2023/01/22 06:27:17;;;;;;;9.93;2.53;;;;;;;;;;5057584;28;20421;-83
2023/01/22 06:30:00;;;;;;;10.40;2.50;;;;;;;;;;5076902;28;20421;-85
2023/01/22 06:32:29;;;;;;;7.35;2.20;;;;;;;;;;5058911;28;20439;-84
2023/01/22 06:35:02;;;;;;;11.70;2.40;;;;;;;;;;5075192;28;20419;-87
2023/01/22 06:37:29;;;;;;;9.20;2.47;;;;;;;;;;5062433;28;20404;-88
2023/01/22 06:40:02;;;;;;;9.35;2.53;;;;;;;;;;5064502;28;20431;-82
2023/01/22 06:42:44;;;;;;;7.18;2.13;;;;;;;;;;5053812;28;21345;-83
2023/01/22 06:45:14;;;;;;;9.83;2.40;;;;;;;;;;5074955;28;20428;-83
2023/01/22 06:47:51;;;;;;;9.00;2.42;;;;;;;;;;5059762;28;20434;-85
2023/01/22 06:50:24;;;;;;;10.75;2.80;;;;;;;;;;5063094;28;21348;-84
2023/01/22 06:52:57;;;;;;;7.70;2.10;;;;;;;;;;5060340;28;20437;-85
2023/01/22 06:55:25;;;;;;;6.47;2.42;;;;;;;;;;5075145;28;20428;-83
2023/01/22 06:57:58;;;;;;;7.47;2.30;;;;;;;;;;5059427;28;20412;-84
2023/01/22 07:00:32;;;;;;;10.38;2.15;;;;;;;;;;5076132;28;20428;-83
2023/01/22 07:03:06;;;;;;;10.13;2.22;;;;;;;;;;5064478;28;20426;-83
2023/01/22 07:05:34;;;;;;;8.32;2.17;;;;;;;;;;5077302;28;20424;-83
2023/01/22 07:08:02;;;;;;;9.93;2.20;;;;;;;;;;5075094;28;20430;-84
2023/01/22 07:10:35;;;;;;;9.10;2.30;;;;;;;;;;5063676;28;20423;-85
2023/01/22 07:13:09;;;;;;;7.68;1.95;;;;;;;;;;5076648;28;20423;-85
2023/01/22 07:15:43;;;;;;;9.85;2.30;;;;;;;;;;5057975;28;20425;-83
2023/01/22 07:18:18;;;;;;;9.37;2.30;;;;;;;;;;5058779;28;20929;-83
2023/01/22 07:20:51;;;;;;;8.95;2.28;;;;;;;;;;5058887;28;20893;-85
2023/01/22 07:23:24;;;;;;;5.78;1.90;;;;;;;;;;5059412;28;20413;-86
2023/01/22 07:25:57;;;;;;;8.48;2.10;;;;;;;;;;5060000;28;20909;-83
2023/01/22 07:28:30;;;;;;;11.80;2.40;;;;;;;;;;5061310;28;20408;-83
2023/01/22 07:30:59;;;;;;;11.02;2.70;;;;;;;;;;5064951;28;20418;-85
2023/01/22 07:33:32;;;;;;;7.70;2.20;;;;;;;;;;5061046;28;20423;-84
2023/01/22 07:36:05;;;;;;;8.52;2.25;;;;;;;;;;5077735;28;20424;-84
2023/01/22 07:38:38;;;;;;;8.98;2.25;;;;;;;;;;5075598;28;20413;-83
2023/01/22 07:41:11;;;;;;;7.17;2.17;;;;;;;;;;5064294;28;20475;-83
2023/01/22 07:43:39;;;;;;;8.73;2.27;;;;;;;;;;5079859;28;20410;-85
2023/01/22 07:46:13;;;;;;;7.67;2.30;;;;;;;;;;5053808;28;20416;-84
2023/01/22 07:48:45;;;;;;;9.27;2.30;;;;;;;;;;5074329;28;20420;-84
2023/01/22 07:51:18;;;;;;;7.45;2.05;;;;;;;;;;5079667;28;20932;-83
2023/01/22 07:53:51;;;;;;;7.28;2.10;;;;;;;;;;5062509;28;20423;-83
2023/01/22 07:56:19;;;;;;;8.48;2.08;;;;;;;;;;5068737;28;20436;-84
2023/01/22 07:58:52;;;;;;;9.70;2.17;;;;;;;;;;5063366;28;20419;-83
2023/01/22 08:01:21;;;;;;;9.02;2.30;;;;;;;;;;5062290;28;20420;-84
2023/01/22 08:03:56;;;;;;;8.35;2.22;;;;;;;;;;5070098;28;20423;-82
2023/01/22 08:06:23;;;;;;;7.00;2.10;;;;;;;;;;5061616;28;20417;-84
2023/01/22 08:08:51;;;;;;;6.18;2.10;;;;;;;;;;5062149;28;20427;-84
2023/01/22 08:11:24;;;;;;;8.15;2.42;;;;;;;;;;5064913;28;20425;-88
2023/01/22 08:13:57;;;;;;;10.07;2.33;;;;;;;;;;5078029;28;20421;-84
2023/01/22 08:16:26;;;;;;;9.18;2.17;;;;;;;;;;5063340;28;20412;-83
2023/01/22 08:18:58;;;;;;;9.82;2.63;;;;;;;;;;5076399;28;21037;-83
2023/01/22 08:21:32;;;;;;;8.20;2.15;;;;;;;;;;5079797;28;20419;-84
2023/01/22 08:24:06;;;;;;;10.52;2.20;;;;;;;;;;5065603;28;20411;-84
2023/01/22 08:26:39;;;;;;;11.70;2.60;;;;;;;;;;5063476;28;20421;-85
2023/01/22 08:29:12;;;;;;;8.70;2.17;;;;;;;;;;5059756;28;20920;-83
2023/01/22 08:31:46;;;;;;;10.60;2.40;;;;;;;;;;5061658;28;20418;-83
2023/01/22 08:34:14;;;;;;;9.10;2.30;;;;;;;;;;5052686;28;20429;-83
2023/01/22 08:36:46;;;;;;;8.50;2.40;;;;;;;;;;5077193;28;20920;-84
2023/01/22 08:39:19;;;;;;;8.65;2.33;;;;;;;;;;5068819;28;20437;-82
2023/01/22 08:41:56;;;;;;;9.70;1.95;;;;;;;;;;5059074;28;20785;-83
2023/01/22 08:44:29;;;;;;;9.43;2.45;;;;;;;;;;5057551;28;20425;-82
2023/01/22 08:47:03;;;;;;;10.00;2.53;;;;;;;;;;5078174;28;20437;-82
2023/01/22 08:49:35;;;;;;;10.13;2.40;;;;;;;;;;5057728;28;20436;-85
2023/01/22 08:52:08;;;;;;;6.97;2.20;;;;;;;;;;5076121;28;20436;-82
2023/01/22 08:54:41;;;;;;;9.30;2.28;;;;;;;;;;5059847;28;20428;-81
2023/01/22 08:57:09;;;;;;;11.30;2.63;;;;;;;;;;5060037;28;20418;-82
2023/01/22 08:59:36;;;;;;;8.48;2.53;;;;;;;;;;5076512;28;20924;-81
2023/01/22 09:02:11;;;;;;;9.18;2.03;;;;;;;;;;5075659;28;20766;-82
2023/01/22 09:04:44;;;;;;;5.13;1.60;;;;;;;;;;5062134;28;20415;-82
2023/01/22 09:07:17;;;;;;;9.90;2.17;;;;;;;;;;5059500;28;20427;-82
2023/01/22 09:09:45;;;;;;;9.18;2.00;;;;;;;;;;5060076;28;20425;-81
2023/01/22 09:12:17;;;;;;;9.88;1.90;;;;;;;;;;5056971;28;20434;-81
2023/01/22 09:14:46;;;;;;;8.73;2.08;;;;;;;;;;5076966;28;20431;-81
2023/01/22 09:17:20;;;;;;;6.97;1.90;;;;;;;;;;5076179;28;20433;-83
2023/01/22 09:19:47;;;;;;;10.93;2.33;;;;;;;;;;5063069;28;20431;-81
2023/01/22 09:22:15;;;;;;;9.45;2.33;;;;;;;;;;5048047;28;20447;-81
2023/01/22 09:24:48;;;;;;;5.15;1.65;;;;;;;;;;5050993;28;20424;-81
2023/01/22 09:27:21;;;;;;;5.57;1.50;;;;;;;;;;5065066;28;20439;-81
2023/01/22 09:29:49;;;;;;;8.60;2.38;;;;;;;;;;5063052;28;20439;-81
2023/01/22 09:32:17;;;;;;;6.32;1.80;;;;;;;;;;5044215;28;20434;-81
2023/01/22 09:34:51;;;;;;;7.95;1.90;;;;;;;;;;5045707;28;20434;-81
2023/01/22 09:37:25;;;;;;;8.80;1.92;;;;;;;;;;5065947;28;20428;-82
2023/01/22 09:39:53;;;;;;;8.55;1.95;;;;;;;;;;5059182;28;20412;-81
2023/01/22 09:42:24;;;;;;;9.88;2.20;;;;;;;;;;5043897;28;20423;-81
2023/01/22 09:44:54;;;;;;;7.82;2.08;;;;;;;;;;5042081;28;20442;-81
2023/01/22 09:47:31;;;;;;;7.53;1.80;;;;;;;;;;5066268;28;20427;-81
2023/01/22 09:50:07;;;;;;;9.57;2.08;;;;;;;;;;5038923;28;21485;-81
2023/01/22 09:52:39;;;;;;;8.80;1.75;;;;;;;;;;5050869;28;21125;-81
2023/01/22 09:55:11;;;;;;;7.10;2.00;;;;;;;;;;5046835;28;20419;-80
2023/01/22 09:57:40;;;;;;;7.45;1.60;;;;;;;;;;5060122;28;20932;-81
2023/01/22 10:00:15;;;;;;;11.32;2.13;;;;;;;;;;5049473;28;20442;-81
2023/01/22 10:02:44;;;;;;;8.25;1.92;;;;;;;;;;5044261;28;20423;-81
2023/01/22 10:05:18;;;;;;;11.38;2.20;;;;;;;;;;5045694;28;20427;-81
2023/01/22 10:07:48;;;;;;;9.93;2.17;;;;;;;;;;5047561;28;20521;-81
2023/01/22 10:10:18;;;;;;;10.02;2.03;;;;;;;;;;5039378;28;20764;-82
2023/01/22 10:12:53;;;;;;;9.65;2.15;;;;;;;;;;5057214;28;20446;-81
2023/01/22 10:15:23;;;;;;;7.47;1.88;;;;;;;;;;5047268;28;20458;-81
2023/01/22 10:17:56;;;;;;;8.18;1.92;;;;;;;;;;5044071;28;20438;-81
2023/01/22 10:20:26;;;;;;;13.68;2.20;;;;;;;;;;5062515;28;20985;-81
2023/01/22 10:23:00;;;;;;;9.43;1.92;;;;;;;;;;5055044;28;20428;-81
2023/01/22 10:25:33;;;;;;;10.10;1.98;;;;;;;;;;5051383;28;20432;-81
2023/01/22 10:28:06;;;;;;;7.40;2.17;;;;;;;;;;5040988;28;20434;-80
2023/01/22 10:30:34;;;;;;;9.47;1.90;;;;;;;;;;5048735;28;20435;-81
2023/01/22 10:33:04;;;;;;;8.38;2.22;;;;;;;;;;5037372;28;20423;-81
2023/01/22 10:35:42;;;;;;;11.05;2.03;;;;;;;;;;5031539;28;20431;-81
2023/01/22 10:38:21;;;;;;;7.25;1.83;;;;;;;;;;5035027;28;20427;-81
2023/01/22 10:40:52;;;;;;;6.82;1.88;;;;;;;;;;5039123;28;20427;-82
2023/01/22 10:43:33;;;;;;;7.38;1.92;;;;;;;;;;5039520;28;20428;-81
2023/01/22 10:46:04;;;;;;;9.05;1.85;;;;;;;;;;5048247;28;20432;-81
2023/01/22 10:48:33;;;;;;;5.43;1.58;;;;;;;;;;5030736;28;20427;-81
2023/01/22 10:51:11;;;;;;;8.90;1.90;;;;;;;;;;5045894;28;21104;-81
2023/01/22 10:53:45;;;;;;;7.03;1.88;;;;;;;;;;5041054;28;20945;-82
2023/01/22 10:56:26;;;;;;;8.85;1.98;;;;;;;;;;5040336;28;20438;-80
2023/01/22 10:59:02;;;;;;;8.10;1.85;;;;;;;;;;5034744;28;20416;-82
2023/01/22 11:01:32;;;;;;;8.23;1.93;;;;;;;;;;5033682;28;20985;-81
2023/01/22 11:04:13;;;;;;;8.25;1.83;;;;;;;;;;5038976;28;20435;-80
2023/01/22 11:06:49;;;;;;;8.87;1.70;;;;;;;;;;5039266;28;21601;-81
2023/01/22 11:09:19;;;;;;;7.78;1.90;;;;;;;;;;5037747;28;20435;-82
2023/01/22 11:12:00;;;;;;;8.65;2.05;;;;;;;;;;5041752;28;20811;-81
2023/01/22 11:14:30;;;;;;;11.20;2.10;;;;;;;;;;5045666;28;20431;-81
2023/01/22 11:17:09;;;;;;;10.13;1.88;;;;;;;;;;5057695;28;20427;-80
2023/01/22 11:19:40;;;;;;;15.43;2.72;;;;;;;;;;5056281;28;20458;-80
2023/01/22 11:22:20;;;;;;;6.95;1.70;;;;;;;;;;5014155;28;20434;-81
2023/01/22 11:24:53;;;;;;;9.25;2.35;;;;;;;;;;5038199;28;20422;-80
2023/01/22 11:27:30;;;;;;;9.35;2.28;;;;;;;;;;5038738;28;20431;-81
2023/01/22 11:30:11;;;;;;;9.75;2.50;;;;;;;;;;5040472;28;20427;-81
2023/01/22 11:32:51;;;;;;;11.38;2.20;;;;;;;;;;5044711;28;20772;-80
2023/01/22 11:35:27;;;;;;;10.68;2.42;;;;;;;;;;5037018;28;20466;-82
2023/01/22 11:38:04;;;;;;;8.85;1.80;;;;;;;;;;5045631;28;20430;-81
2023/01/22 11:40:42;;;;;;;11.52;2.30;;;;;;;;;;5038199;28;20981;-82
2023/01/22 11:43:19;;;;;;;7.45;1.90;;;;;;;;;;5049089;28;20430;-81
2023/01/22 11:46:05;;;;;;;8.35;2.00;;;;;;;;;;5052172;28;20494;-81
2023/01/22 11:48:48;;;;;;;10.07;2.67;;;;;;;;;;5037485;28;20474;-81
2023/01/22 11:51:24;;;;;;;12.55;2.22;;;;;;;;;;5058827;28;20447;-81
2023/01/22 11:54:05;;;;;;;9.48;2.70;;;;;;;;;;5049404;28;20427;-81
2023/01/22 11:56:46;;;;;;;9.25;2.10;;;;;;;;;;5040222;28;20424;-82
2023/01/22 11:59:21;;;;;;;9.75;2.30;;;;;;;;;;5039453;28;20435;-81
2023/01/22 12:02:01;;;;;;;8.00;2.30;;;;;;;;;;5042952;28;21137;-81
2023/01/22 12:04:43;;;;;;;10.25;2.40;;;;;;;;;;5050595;28;20436;-81
2023/01/22 12:07:34;;;;;;;6.72;2.08;;;;;;;;;;5039813;28;20439;-81
2023/01/22 12:10:18;;;;;;;8.82;2.30;;;;;;;;;;5039152;28;20431;-81
2023/01/22 12:12:51;;;;;;;9.13;2.20;;;;;;;;;;5056495;28;20418;-81
2023/01/22 12:15:39;;;;;;;7.67;1.93;;;;;;;;;;5037730;28;20415;-81
2023/01/22 12:18:28;;;;;;;6.55;1.88;;;;;;;;;;5038132;28;20447;-82
2023/01/22 12:21:06;;;;;;;8.82;1.90;;;;;;;;;;5012898;28;20431;-84
2023/01/22 12:23:35;;;;;;;11.38;2.28;;;;;;;;;;5001531;28;21093;-82
2023/01/22 12:26:12;;;;;;;9.77;2.00;;;;;;;;;;5043080;28;20431;-81
2023/01/22 12:28:47;;;;;;;12.75;3.95;;;;;;;;;;5039980;28;21009;-82
2023/01/22 12:31:16;;;;;;;9.15;2.70;;;;;;;;;;5043278;28;20424;-82
2023/01/22 12:33:49;;;;;;;9.40;2.40;;;;;;;;;;5057030;28;21114;-83
2023/01/22 12:36:19;;;;;;;10.00;2.25;;;;;;;;;;5042217;28;20436;-83
2023/01/22 12:38:51;;;;;;;7.20;2.08;;;;;;;;;;5036689;28;20456;-81
2023/01/22 12:41:31;;;;;;;6.72;1.90;;;;;;;;;;5042041;28;20578;-82
2023/01/22 12:44:07;;;;;;;6.88;2.08;;;;;;;;;;5038378;28;20927;-82
2023/01/22 12:46:41;;;;;;;8.65;2.13;;;;;;;;;;5036721;28;20435;-81
2023/01/22 12:49:09;;;;;;;7.95;2.08;;;;;;;;;;5052912;28;20903;-81
2023/01/22 12:51:43;;;;;;;6.63;1.80;;;;;;;;;;5036905;28;20430;-82
2023/01/22 12:54:21;;;;;;;7.90;1.98;;;;;;;;;;5036449;28;20431;-81
2023/01/22 12:56:56;;;;;;;9.00;2.20;;;;;;;;;;5043934;28;20415;-81
2023/01/22 12:59:30;;;;;;;8.35;2.33;;;;;;;;;;5044419;28;20442;-81
2023/01/22 13:02:05;;;;;;;8.57;2.10;;;;;;;;;;5038563;28;20450;-81
2023/01/22 13:04:36;;;;;;;8.30;2.13;;;;;;;;;;5039415;28;20431;-82
2023/01/22 13:07:05;;;;;;;7.37;2.07;;;;;;;;;;5035383;28;20503;-81
2023/01/22 13:09:37;;;;;;;7.68;2.22;;;;;;;;;;5036201;28;20443;-81
2023/01/22 13:12:10;;;;;;;11.57;4.70;;;;;;;;;;5060012;28;20962;-81
2023/01/22 13:14:41;;;;;;;6.97;2.25;;;;;;;;;;5052207;28;20908;-81
2023/01/22 13:17:17;;;;;;;8.63;2.33;;;;;;;;;;5034284;28;20761;-81
2023/01/22 13:19:45;;;;;;;8.32;2.30;;;;;;;;;;5042338;28;20431;-81
2023/01/22 13:22:21;;;;;;;12.07;2.40;;;;;;;;;;5023042;28;20431;-81
2023/01/22 13:24:56;;;;;;;10.73;2.92;;;;;;;;;;5033122;28;20955;-81
2023/01/22 13:27:32;;;;;;;6.38;2.10;;;;;;;;;;5031795;28;20471;-81
2023/01/22 13:30:07;;;;;;;9.48;2.15;;;;;;;;;;5042280;28;20427;-81
2023/01/22 13:32:35;;;;;;;8.93;2.08;;;;;;;;;;5058220;28;20446;-81
2023/01/22 13:35:11;;;;;;;7.75;2.38;;;;;;;;;;5041838;28;20420;-81
2023/01/22 13:37:40;;;;;;;6.07;2.07;;;;;;;;;;5035950;28;20443;-81
2023/01/22 13:40:12;;;;;;;6.35;2.20;;;;;;;;;;5040574;28;20415;-81
2023/01/22 13:42:46;;;;;;;7.70;2.10;;;;;;;;;;5038037;28;22040;-81
2023/01/22 13:45:16;;;;;;;7.72;2.30;;;;;;;;;;5038402;28;20423;-81
2023/01/22 13:47:43;;;;;;;5.73;2.03;;;;;;;;;;5048048;28;20435;-81
2023/01/22 13:50:20;;;;;;;7.77;2.20;;;;;;;;;;5034748;28;20911;-81
2023/01/22 13:52:49;;;;;;;7.82;2.20;;;;;;;;;;5035786;28;20428;-81
2023/01/22 13:55:22;;;;;;;7.57;2.08;;;;;;;;;;5041722;28;20428;-81
2023/01/22 13:57:59;;;;;;;7.65;2.33;;;;;;;;;;5044599;28;20430;-81
2023/01/22 14:00:30;;;;;;;7.30;2.35;;;;;;;;;;5046084;28;20419;-81
2023/01/22 14:02:58;;;;;;;6.07;2.10;;;;;;;;;;5041126;28;20423;-81
2023/01/22 14:05:33;;;;;;;7.35;2.40;;;;;;;;;;5038729;28;20435;-81
2023/01/22 14:08:05;;;;;;;7.78;2.30;;;;;;;;;;5037475;28;21123;-81
2023/01/22 14:10:40;;;;;;;7.15;2.30;;;;;;;;;;5041158;28;20428;-81
2023/01/22 14:13:14;;;;;;;6.50;2.20;;;;;;;;;;5056866;28;20442;-80
2023/01/22 14:15:42;;;;;;;6.20;2.00;;;;;;;;;;5031586;28;20431;-81
2023/01/22 14:18:16;;;;;;;6.35;1.90;;;;;;;;;;5038639;28;20432;-80
2023/01/22 14:20:44;;;;;;;7.35;2.10;;;;;;;;;;5061099;28;20435;-81
2023/01/22 14:23:12;;;;;;;8.07;2.20;;;;;;;;;;5013174;28;20438;-81
2023/01/22 14:25:46;;;;;;;6.55;2.30;;;;;;;;;;5041993;28;20432;-81
2023/01/22 14:28:16;;;;;;;10.10;2.30;;;;;;;;;;5036774;28;20420;-82
2023/01/22 14:30:49;;;;;;;6.53;1.80;;;;;;;;;;5038282;28;20428;-81
2023/01/22 14:33:18;;;;;;;6.35;2.08;;;;;;;;;;5038915;28;20417;-80
2023/01/22 14:35:46;;;;;;;5.70;1.90;;;;;;;;;;5044396;28;20418;-81
2023/01/22 14:38:14;;;;;;;5.68;1.70;;;;;;;;;;5036367;28;20427;-81
2023/01/22 14:40:47;;;;;;;4.82;1.85;;;;;;;;;;5040980;28;20979;-83
2023/01/22 14:43:16;;;;;;;6.13;1.70;;;;;;;;;;5034302;28;20439;-81
2023/01/22 14:45:49;;;;;;;6.57;1.77;;;;;;;;;;5035260;28;20485;-81
2023/01/22 14:48:18;;;;;;;4.95;1.70;;;;;;;;;;5042450;28;20982;-81
2023/01/22 14:50:51;;;;;;;5.85;1.80;;;;;;;;;;5038067;28;20776;-81
2023/01/22 14:53:19;;;;;;;6.20;1.70;;;;;;;;;;5040189;28;20415;-81
2023/01/22 14:55:52;;;;;;;4.95;1.80;;;;;;;;;;5038248;28;20432;-81
2023/01/22 14:58:26;;;;;;;6.80;1.90;;;;;;;;;;5037885;28;20425;-80
2023/01/22 15:00:59;;;;;;;5.07;1.50;;;;;;;;;;5038643;28;20430;-81
2023/01/22 15:03:32;;;;;;;4.07;1.67;;;;;;;;;;5039394;28;20431;-81
2023/01/22 15:06:00;;;;;;;5.25;1.50;;;;;;;;;;5035149;28;20978;-82
2023/01/22 15:08:33;;;;;;;5.93;2.22;;;;;;;;;;5034283;28;20431;-81
2023/01/22 15:11:01;;;;;;;4.03;1.63;;;;;;;;;;5040684;28;20422;-81
2023/01/22 15:13:35;;;;;;;6.32;1.90;;;;;;;;;;5047306;28;20415;-82
2023/01/22 15:16:09;;;;;;;7.63;2.10;;;;;;;;;;5040123;28;20423;-82
2023/01/22 15:18:42;;;;;;;4.90;1.60;;;;;;;;;;5035468;28;20465;-81
2023/01/22 15:21:10;;;;;;;6.93;2.00;;;;;;;;;;5039716;28;20443;-81